Castle Hot Springs, Arizona
Current Conditions -  °F | °C
As of 12:53 AM on Friday 24 Oct 2014 (Local Time) from KDVT Reporting Station
Clear Clear  
Wind Chill: 71°   Ceiling: Unl
Heat Index: 71°   Visibility: 10mi
Dew Point: 44°   Wind: 0mph
Humidity: 38%   Direction: NA
Pressure: 30"   Gusts: NA
Location:  33.98°N, 112.36°W
Report Text: KDVT 240753Z 00000KT 10SM CLR 22/07 A3000 RMK AO2 SLP138 T02170067
Loading
Personal Weather Stations






























Interactive Weather Map
Tropical Storm Tracking
New forecast layout! Learn more

10-Day Weather Forecast

Advertisements
Track Severe Weather on mobile